createdAt,value
2019-02-09T00:03:37.221Z,91.96
2019-02-09T00:08:42.596Z,92.68
2019-02-09T00:13:52.495Z,92.18
2019-02-09T00:19:03.724Z,91.74
2019-02-09T00:24:09.040Z,91.52
2019-02-09T00:29:16.218Z,90.64
2019-02-09T00:34:25.324Z,90.27
2019-02-09T00:39:31.948Z,89.81
2019-02-09T00:44:40.340Z,89.03
2019-02-09T00:49:48.309Z,88.98
2019-02-09T00:54:56.108Z,88.77
2019-02-09T01:00:02.577Z,88.45
2019-02-09T01:05:10.906Z,87.82
2019-02-09T01:10:19.972Z,88.20
2019-02-09T01:15:27.343Z,88.44
2019-02-09T01:20:36.617Z,87.62
2019-02-09T01:25:49.060Z,87.94
2019-02-09T01:30:57.953Z,87.96
2019-02-09T01:36:05.485Z,88.31
2019-02-09T01:41:13.689Z,88.36
2019-02-09T01:46:21.580Z,88.45
2019-02-09T01:51:30.070Z,88.65
2019-02-09T01:56:36.840Z,88.41
2019-02-09T02:01:44.104Z,88.29
2019-02-09T02:06:53.044Z,88.50
2019-02-09T02:12:01.729Z,88.21
2019-02-09T02:17:08.925Z,88.45
2019-02-09T02:22:19.422Z,87.68
2019-02-09T02:27:26.592Z,89.09
2019-02-09T02:32:34.527Z,89.46
2019-02-09T02:37:46.016Z,89.04
2019-02-09T02:42:52.993Z,86.91
2019-02-09T02:48:01.169Z,88.95
2019-02-09T02:53:09.082Z,89.74
2019-02-09T02:58:18.045Z,89.88
2019-02-09T03:03:25.929Z,89.84
2019-02-09T03:08:32.584Z,89.43
2019-02-09T03:13:41.602Z,89.34
2019-02-09T03:18:50.404Z,89.56
2019-02-09T03:24:00.959Z,90.03
2019-02-09T03:29:08.867Z,91.96
2019-02-09T03:34:17.889Z,92.79
2019-02-09T03:39:31.853Z,92.64
2019-02-09T03:44:40.561Z,91.70
2019-02-09T03:49:50.279Z,91.35
2019-02-09T03:55:00.813Z,91.25
2019-02-09T04:00:10.944Z,88.57
2019-02-09T04:05:19.715Z,88.51
2019-02-09T04:10:29.342Z,87.78
2019-02-09T04:15:38.310Z,87.38
2019-02-09T04:20:46.474Z,87.21
2019-02-09T04:25:55.235Z,86.65
2019-02-09T04:31:05.927Z,86.05
2019-02-09T04:36:11.022Z,85.79
2019-02-09T04:41:20.761Z,85.50
2019-02-09T04:46:31.967Z,84.89
2019-02-09T04:51:40.017Z,85.18
2019-02-09T04:56:48.712Z,85.20
2019-02-09T05:01:57.378Z,84.98
2019-02-09T05:07:06.536Z,83.17
2019-02-09T05:12:17.930Z,81.84
2019-02-09T05:17:26.033Z,81.98
2019-02-09T05:22:31.780Z,81.57
2019-02-09T05:27:42.081Z,80.14
2019-02-09T05:32:50.536Z,80.78
2019-02-09T05:37:57.062Z,80.37
2019-02-09T05:43:05.832Z,80.39
2019-02-09T05:48:17.156Z,80.15
2019-02-09T05:53:24.718Z,79.67
2019-02-09T05:58:55.583Z,79.99
2019-02-09T06:04:06.142Z,79.46
2019-02-09T06:09:14.388Z,79.51
2019-02-09T06:14:23.599Z,79.28
2019-02-09T06:19:31.582Z,79.12
2019-02-09T06:24:40.224Z,79.91
2019-02-09T06:29:52.416Z,79.64
2019-02-09T06:35:01.219Z,79.94
2019-02-09T06:40:09.131Z,80.00
2019-02-09T06:45:18.474Z,79.22
2019-02-09T06:50:30.797Z,77.99
2019-02-09T06:55:36.660Z,78.16
2019-02-09T07:00:46.370Z,77.85
2019-02-09T07:05:55.425Z,77.77
2019-02-09T07:11:02.641Z,77.58
2019-02-09T07:16:12.459Z,77.87
2019-02-09T07:21:18.880Z,77.01
2019-02-09T07:26:28.562Z,77.32
2019-02-09T07:31:37.071Z,77.22
2019-02-09T07:36:45.378Z,77.43
2019-02-09T07:41:55.572Z,77.66
2019-02-09T07:47:03.088Z,77.30
2019-02-09T07:52:10.258Z,77.89
2019-02-09T07:57:21.637Z,77.89
2019-02-09T08:02:28.008Z,77.21
2019-02-09T08:07:36.441Z,77.80
2019-02-09T08:12:44.904Z,77.64
2019-02-09T08:17:51.820Z,77.48
2019-02-09T08:23:00.853Z,77.79
2019-02-09T08:28:09.284Z,77.73
2019-02-09T08:33:18.944Z,77.78
2019-02-09T08:38:28.281Z,77.99
2019-02-09T08:43:38.274Z,77.98
2019-02-09T08:48:48.419Z,77.15
2019-02-09T08:53:57.538Z,76.32
2019-02-09T08:59:04.125Z,76.37
2019-02-09T09:04:13.768Z,76.40
2019-02-09T09:09:28.449Z,75.39
2019-02-09T09:14:35.979Z,74.62
2019-02-09T09:19:43.061Z,74.81
2019-02-09T09:24:52.325Z,74.72
2019-02-09T09:29:59.691Z,74.87
2019-02-09T09:35:07.392Z,74.88
2019-02-09T09:40:19.018Z,74.95
2019-02-09T09:45:29.477Z,75.22
2019-02-09T09:50:39.968Z,75.49
2019-02-09T09:55:48.772Z,75.77
2019-02-09T10:00:58.542Z,75.35
2019-02-09T10:06:05.637Z,75.37
2019-02-09T10:11:11.678Z,74.77
2019-02-09T10:16:18.087Z,74.67
2019-02-09T10:21:27.916Z,72.42
2019-02-09T10:26:35.267Z,72.49
2019-02-09T10:31:43.143Z,70.52
2019-02-09T10:36:52.682Z,69.44
2019-02-09T10:42:01.023Z,70.32
2019-02-09T10:47:06.362Z,68.68
2019-02-09T10:52:13.664Z,69.28
2019-02-09T10:57:20.949Z,71.04
2019-02-09T11:02:28.043Z,70.99
2019-02-09T11:07:35.399Z,71.20
2019-02-09T11:12:46.766Z,71.05
2019-02-09T11:17:56.455Z,71.01
2019-02-09T11:23:04.633Z,67.16
2019-02-09T11:28:14.241Z,66.14
2019-02-09T11:33:21.392Z,66.28
2019-02-09T11:38:29.299Z,63.13
2019-02-09T11:43:36.533Z,60.10
2019-02-09T11:48:44.340Z,57.80
2019-02-09T11:53:53.507Z,58.54
2019-02-09T11:59:02.224Z,59.78
2019-02-09T12:04:08.679Z,60.44
2019-02-09T12:09:17.640Z,61.18
2019-02-09T12:14:27.949Z,62.71
2019-02-09T12:19:35.736Z,61.91
2019-02-09T12:24:43.782Z,64.24
2019-02-09T12:29:51.554Z,62.90
2019-02-09T12:35:02.016Z,65.34
2019-02-09T12:40:13.570Z,65.48
2019-02-09T12:45:20.661Z,66.48
2019-02-09T12:50:30.009Z,65.75
2019-02-09T12:55:39.655Z,67.31
2019-02-09T13:00:48.363Z,68.69
2019-02-09T13:05:56.369Z,66.13
2019-02-09T13:11:07.889Z,63.53
2019-02-09T13:16:14.291Z,62.41
2019-02-09T13:21:23.847Z,63.06
2019-02-09T13:26:30.705Z,63.24
2019-02-09T13:31:39.906Z,63.83
2019-02-09T13:36:51.017Z,64.39
2019-02-09T13:41:58.118Z,64.06
2019-02-09T13:47:05.004Z,63.83
2019-02-09T13:52:13.811Z,63.60
2019-02-09T13:57:21.569Z,65.41
2019-02-09T14:02:29.867Z,65.15
2019-02-09T14:07:38.121Z,63.30
2019-02-09T14:12:44.522Z,62.09
2019-02-09T14:17:50.445Z,62.52
2019-02-09T14:23:02.808Z,63.65
2019-02-09T14:28:12.420Z,62.12
2019-02-09T14:33:22.290Z,62.82
2019-02-09T14:38:33.173Z,64.20
2019-02-09T14:43:40.533Z,64.85
2019-02-09T14:48:52.297Z,65.01
2019-02-09T14:53:58.828Z,63.95
2019-02-09T14:59:06.185Z,63.27
2019-02-09T15:04:14.946Z,64.04
2019-02-09T15:09:24.516Z,62.63
2019-02-09T15:14:32.295Z,62.43
2019-02-09T15:19:42.299Z,62.10
2019-02-09T15:24:51.932Z,61.63
2019-02-09T15:30:00.473Z,61.34
2019-02-09T15:35:12.203Z,62.88
2019-02-09T15:40:20.910Z,62.31
2019-02-09T15:45:27.881Z,64.03
2019-02-09T15:50:35.725Z,63.38
2019-02-09T15:55:43.146Z,64.04
2019-02-09T16:00:51.201Z,64.55
2019-02-09T16:05:57.157Z,65.23
2019-02-09T16:11:04.172Z,65.83
2019-02-09T16:16:11.980Z,66.40
2019-02-09T16:21:20.009Z,66.79
2019-02-09T16:26:31.230Z,67.22
2019-02-09T16:31:40.078Z,67.60
2019-02-09T16:36:50.446Z,67.96
2019-02-09T16:41:58.641Z,68.43
2019-02-09T16:47:05.228Z,68.62
2019-02-09T16:52:15.331Z,69.24
2019-02-09T16:57:23.725Z,69.29
2019-02-09T17:02:31.510Z,69.78
2019-02-09T17:07:37.715Z,70.56
2019-02-09T17:12:45.958Z,70.78
2019-02-09T17:17:57.638Z,70.89
2019-02-09T17:23:05.890Z,71.10
2019-02-09T17:28:15.691Z,70.43
2019-02-09T17:33:23.007Z,70.45
2019-02-09T17:38:33.308Z,70.36
2019-02-09T17:43:36.181Z,70.61
2019-02-09T17:48:44.236Z,70.81
2019-02-09T17:53:50.948Z,70.54
2019-02-09T17:58:56.580Z,70.70
2019-02-09T18:04:02.608Z,71.06
2019-02-09T18:09:10.823Z,71.35
2019-02-09T18:14:27.713Z,71.85
2019-02-09T18:19:38.177Z,72.33
2019-02-09T18:24:45.006Z,72.60
2019-02-09T18:29:51.653Z,72.85
2019-02-09T18:35:02.329Z,72.72
2019-02-09T18:40:15.506Z,72.44
2019-02-09T18:45:26.595Z,71.80
2019-02-09T18:50:34.443Z,71.97
2019-02-09T18:55:44.106Z,71.90
2019-02-09T19:00:50.312Z,72.07
2019-02-09T19:05:57.261Z,72.26
2019-02-09T19:11:07.066Z,72.53
2019-02-09T19:16:13.561Z,72.37
2019-02-09T19:21:21.222Z,72.56
2019-02-09T19:26:27.691Z,73.00
2019-02-09T19:31:37.372Z,73.04
2019-02-09T19:36:44.004Z,73.44
2019-02-09T19:41:53.447Z,73.58
2019-02-09T19:47:02.744Z,73.96
2019-02-09T19:52:11.499Z,73.72
2019-02-09T19:57:22.978Z,73.78
2019-02-09T20:02:33.504Z,74.11
2019-02-09T20:07:42.931Z,74.47
2019-02-09T20:15:31.335Z,74.87
2019-02-09T20:20:37.967Z,74.72
2019-02-09T20:25:46.484Z,75.05
2019-02-09T20:30:58.893Z,75.34
2019-02-09T20:36:27.533Z,75.71
2019-02-09T20:41:35.004Z,75.78
2019-02-09T20:46:40.743Z,75.85
2019-02-09T20:51:53.288Z,76.11
2019-02-09T20:57:01.006Z,76.43
2019-02-09T21:02:11.264Z,76.63
2019-02-09T21:07:24.305Z,76.55
2019-02-09T21:12:26.494Z,76.69
2019-02-09T21:17:33.685Z,76.70
2019-02-09T21:22:42.898Z,76.63
2019-02-09T21:27:55.238Z,76.79
2019-02-09T21:33:04.971Z,77.02
2019-02-09T21:38:12.314Z,77.17
2019-02-09T21:43:19.458Z,77.26
2019-02-09T21:48:26.440Z,77.24
2019-02-09T21:53:36.282Z,77.54
2019-02-09T21:58:45.006Z,77.71
2019-02-09T22:03:53.201Z,77.93
2019-02-09T22:09:02.368Z,78.42
2019-02-09T22:14:09.300Z,78.70
2019-02-09T22:19:17.886Z,78.89
2019-02-09T22:24:26.755Z,78.96
2019-02-09T22:29:36.549Z,79.12
2019-02-09T22:34:45.600Z,79.20
2019-02-09T22:39:55.602Z,79.32
2019-02-09T22:45:03.373Z,79.32
2019-02-09T22:50:19.201Z,79.17
2019-02-09T22:55:24.068Z,79.01
2019-02-09T23:01:11.972Z,78.76
2019-02-09T23:06:43.106Z,78.80
2019-02-09T23:11:52.325Z,78.71
2019-02-09T23:17:02.741Z,78.72
2019-02-09T23:22:09.753Z,78.78
2019-02-09T23:27:18.869Z,78.96
2019-02-09T23:32:27.645Z,78.95
2019-02-09T23:37:34.922Z,78.85
2019-02-09T23:42:43.644Z,78.80
2019-02-09T23:47:52.297Z,78.99
2019-02-09T23:53:01.144Z,79.21
2019-02-09T23:58:12.484Z,79.21
